Aulander, North Carolina
Current Conditions -  °F | °C
As of 5:35 AM on Wednesday 22 Oct 2014 (Local Time) from KASJ Reporting Station
Broken Clouds Broken Clouds  
Wind Chill: 51°   Ceiling: 7000
Heat Index: 51°   Visibility: 10mi
Dew Point: 48°   Wind: 0mph
Humidity: 90%   Direction: NA
Pressure: 29.88"   Gusts: NA
Location:  36.23°N, 77.11°W
Report Text: KASJ 220935Z AUTO 00000KT 10SM SCT029 SCT038 BKN070 10/09 A2988 RMK AO2 T01030088
Loading
Personal Weather Stations






























Interactive Weather Map New forecast layout! Learn more

10-Day Weather Forecast

Advertisements
Track Severe Weather on mobile